Los Lunas ASC

2021-04-18 22:10:00

  • imperial
Date Time Air Temperature Relative Humidity Dewpoint Windchill Heat Index Wind Speed Wind Dir. Rain Solar Radiation Soil Temperature
2m 2m 3m 3m 10cm
US/Mountain F % F F F MPH deg in MJ/m^2 F
max avg avg
2021-04-17 22:15:00 45.7 59.0 32.2 45.7 45.7 2.4 3.7 2.2 191.6 176.0 0.00 0.0000000 65.9
2021-04-17 22:20:00 45.5 52.9 29.3 45.5 45.5 1.5 5.3 2.4 48.0 156.4 0.00 0.0000000 65.8
2021-04-17 22:25:00 45.3 52.0 28.7 45.3 45.3 1.3 3.1 1.5 87.3 83.6 0.00 0.0000000 65.7
2021-04-17 22:30:00 45.3 53.0 29.1 45.3 45.3 0.0 0.8 0.1 59.9 87.2 0.00 0.0000000 65.6
2021-04-17 22:35:00 45.2 55.8 30.4 45.2 45.2 2.8 4.4 1.3 91.6 137.9 0.00 0.0000000 65.5
2021-04-17 22:40:00 45.1 58.6 31.5 45.1 45.1 0.8 2.8 0.6 151.3 106.5 0.00 0.0000000 65.4
2021-04-17 22:45:00 44.8 66.9 34.5 42.6 44.8 4.4 4.7 2.4 191.5 206.7 0.00 0.0000000 65.3
2021-04-17 22:50:00 43.9 70.0 34.8 43.9 43.9 1.5 5.5 2.8 172.5 190.5 0.00 0.0000000 65.2
2021-04-17 22:55:00 44.1 69.4 34.7 44.1 44.1 2.8 4.0 2.7 105.1 151.4 0.00 0.0000000 65.1
2021-04-17 23:00:00 43.8 71.2 35.1 43.8 43.8 2.6 4.4 2.1 189.7 241.5 0.00 0.0000000 65.0
2021-04-17 23:05:00 43.7 74.1 36.0 41.0 43.7 4.7 5.5 3.5 235.7 220.5 0.00 0.0000000 65.0
2021-04-17 23:10:00 43.2 76.0 36.1 43.2 43.2 2.6 4.6 2.6 190.7 236.8 0.00 0.0000000 64.9
2021-04-17 23:15:00 43.2 76.8 36.4 43.2 43.2 2.4 5.6 3.4 242.7 228.7 0.00 0.0000000 64.8
2021-04-17 23:20:00 42.8 76.2 35.9 42.8 42.8 0.0 4.6 2.2 339.7 274.3 0.00 0.0000000 64.7
2021-04-17 23:25:00 43.1 66.8 32.8 43.1 43.1 1.3 4.6 2.0 223.4 268.9 0.00 0.0000000 64.6
2021-04-17 23:30:00 43.1 65.2 32.2 43.1 43.1 0.0 0.0 0.0 226.2 0.0 0.00 0.0000000 64.6
2021-04-17 23:35:00 43.3 66.5 32.9 43.3 43.3 1.0 1.5 0.3 166.0 243.1 0.00 0.0000000 64.5
2021-04-17 23:40:00 43.6 69.7 34.4 43.6 43.6 0.0 1.9 0.5 325.4 49.3 0.00 0.0000000 64.4
2021-04-17 23:45:00 43.3 72.5 35.0 43.3 43.3 2.6 3.8 1.5 5.0 229.2 0.00 0.0000000 64.3
2021-04-17 23:50:00 42.7 77.6 36.2 40.0 42.7 4.6 5.1 3.1 203.1 250.1 0.00 0.0000000 64.2
2021-04-17 23:55:00 42.4 79.3 36.5 42.4 42.4 3.0 4.6 2.3 223.6 248.6 0.00 0.0000000 64.1
2021-04-18 00:00:00 42.3 80.2 36.6 42.3 42.3 1.7 3.8 2.2 298.4 250.9 0.00 0.0000000 64.1
2021-04-18 00:05:00 42.1 81.0 36.6 42.1 42.1 2.2 4.7 2.5 226.3 241.5 0.00 0.0000000 64.0
2021-04-18 00:10:00 42.1 81.6 36.8 42.1 42.1 1.9 3.1 1.6 286.5 240.3 0.00 0.0000000 63.9
2021-04-18 00:15:00 41.9 81.0 36.5 41.9 41.9 0.0 4.7 2.1 244.3 231.7 0.00 0.0000000 63.9
2021-04-18 00:20:00 42.0 81.3 36.7 42.0 42.0 3.0 5.1 2.1 199.8 214.5 0.00 0.0000000 63.8
2021-04-18 00:25:00 41.7 83.1 37.0 39.3 41.7 4.0 4.0 3.2 185.7 194.5 0.00 0.0000000 63.7
2021-04-18 00:30:00 41.4 83.9 37.0 41.4 41.4 3.0 4.6 2.6 213.1 175.4 0.00 0.0000000 63.6
2021-04-18 00:35:00 41.5 77.2 34.9 41.5 41.5 2.6 3.5 2.0 231.3 217.4 0.00 0.0000000 63.6
2021-04-18 00:40:00 41.6 79.1 35.6 41.6 41.6 0.0 2.2 0.4 135.7 256.7 0.00 0.0000000 63.5
2021-04-18 00:45:00 41.5 76.7 34.7 41.5 41.5 2.2 3.1 1.5 222.9 220.2 0.00 0.0000000 63.4
2021-04-18 00:50:00 41.6 77.3 35.0 39.6 41.6 3.5 5.8 3.8 239.4 241.6 0.00 0.0000000 63.4
2021-04-18 00:55:00 41.7 75.6 34.5 41.7 41.7 2.2 4.7 2.9 197.3 234.9 0.00 0.0000000 63.3
2021-04-18 01:00:00 41.9 71.7 33.5 41.9 41.9 0.0 2.2 1.1 212.7 206.9 0.00 0.0000000 63.2
2021-04-18 01:05:00 42.1 67.9 32.3 42.1 42.1 2.1 2.6 0.7 43.4 53.1 0.00 0.0000000 63.1
2021-04-18 01:10:00 42.4 72.6 34.2 42.4 42.4 0.0 2.6 1.7 40.4 31.7 0.00 0.0000000 63.1
2021-04-18 01:15:00 42.3 76.6 35.5 42.3 42.3 0.0 2.4 1.0 52.6 39.9 0.00 0.0000000 63.0
2021-04-18 01:20:00 42.4 62.8 30.7 42.4 42.4 2.2 5.5 2.4 44.4 40.5 0.00 0.0000000 62.9
2021-04-18 01:25:00 42.7 66.5 32.4 42.7 42.7 0.0 1.9 0.3 12.8 65.5 0.00 0.0000000 62.8
2021-04-18 01:30:00 42.7 68.0 32.9 40.9 42.7 3.5 3.5 1.1 2.1 339.7 0.00 0.0000000 62.8
2021-04-18 01:35:00 42.5 66.2 32.1 40.1 42.5 4.2 4.2 2.5 46.4 20.6 0.00 0.0000000 62.7
2021-04-18 01:40:00 42.6 74.9 35.2 39.2 42.6 5.5 8.0 5.2 42.4 36.5 0.00 0.0000000 62.6
2021-04-18 01:45:00 42.2 75.3 35.0 39.3 42.2 4.7 9.7 5.1 37.5 22.5 0.00 0.0000000 62.5
2021-04-18 01:50:00 41.9 73.2 34.0 39.7 41.9 3.8 8.3 4.8 12.8 0.6 0.00 0.0000000 62.5
2021-04-18 01:55:00 42.0 71.6 33.5 39.6 42.0 4.0 4.2 3.2 11.9 353.6 0.00 0.0000000 62.4
2021-04-18 02:00:00 41.9 68.8 32.4 39.9 41.9 3.5 4.7 3.3 47.5 28.4 0.00 0.0000000 62.3
2021-04-18 02:05:00 41.7 69.0 32.3 38.4 41.7 5.1 6.0 3.8 326.8 21.5 0.00 0.0000000 62.3
2021-04-18 02:10:00 41.5 67.9 31.7 38.1 41.5 5.1 5.1 3.6 24.1 25.3 0.00 0.0000000 62.2
2021-04-18 02:15:00 41.5 67.8 31.7 41.5 41.5 2.8 6.0 3.3 41.5 26.2 0.00 0.0000000 62.1
2021-04-18 02:20:00 41.2 66.8 31.0 41.2 41.2 2.8 4.4 3.1 13.7 28.9 0.00 0.0000000 62.1
2021-04-18 02:25:00 41.3 66.1 30.8 41.3 41.3 2.4 3.3 1.8 336.6 10.5 0.00 0.0000000 62.0
2021-04-18 02:30:00 41.2 63.1 29.6 38.4 41.2 4.4 4.4 1.8 5.0 357.8 0.00 0.0000000 61.9
2021-04-18 02:35:00 41.8 60.0 28.9 41.8 41.8 0.0 4.4 2.1 112.6 21.2 0.00 0.0000000 61.8
2021-04-18 02:40:00 41.9 61.5 29.6 41.9 41.9 3.0 4.6 2.0 66.9 49.5 0.00 0.0000000 61.7
2021-04-18 02:45:00 41.6 60.7 29.0 41.6 41.6 1.0 2.4 0.5 216.9 148.1 0.00 0.0000000 61.7
2021-04-18 02:50:00 41.3 63.0 29.7 41.3 41.3 1.9 2.4 0.6 49.6 68.7 0.00 0.0000000 61.6
2021-04-18 02:55:00 41.2 62.0 29.1 41.2 41.2 0.0 3.0 1.0 111.2 87.7 0.00 0.0000000 61.5
2021-04-18 03:00:00 40.7 62.0 28.7 40.7 40.7 1.5 1.5 0.1 32.6 38.1 0.00 0.0000000 61.4
2021-04-18 03:05:00 40.9 59.5 27.8 38.6 40.9 3.7 3.7 1.9 83.4 15.0 0.00 0.0000000 61.4
2021-04-18 03:10:00 41.0 60.8 28.5 41.0 41.0 0.0 4.7 2.1 110.5 51.6 0.00 0.0000000 61.3
2021-04-18 03:15:00 41.0 63.3 29.4 41.0 41.0 0.0 3.3 1.6 73.8 58.5 0.00 0.0000000 61.2
2021-04-18 03:20:00 40.6 63.2 29.1 40.6 40.6 3.0 3.0 0.6 71.3 62.3 0.00 0.0000000 61.1
2021-04-18 03:25:00 40.9 64.1 29.6 38.8 40.9 3.5 4.4 3.0 59.3 42.8 0.00 0.0000000 61.1
2021-04-18 03:30:00 40.8 62.7 29.0 38.5 40.8 3.7 3.7 1.7 3.6 65.3 0.00 0.0000000 61.0
2021-04-18 03:35:00 40.5 62.5 28.7 40.5 40.5 1.2 2.6 0.5 155.0 106.4 0.00 0.0000000 60.9
2021-04-18 03:40:00 40.4 60.8 28.0 40.4 40.4 1.9 3.3 1.2 40.3 99.4 0.00 0.0000000 60.9
2021-04-18 03:45:00 40.6 60.8 28.1 40.6 40.6 1.2 1.7 1.2 89.6 87.9 0.00 0.0000000 60.8
2021-04-18 03:50:00 40.2 62.4 28.4 40.2 40.2 1.3 1.5 1.0 83.4 88.8 0.00 0.0000000 60.7
2021-04-18 03:55:00 39.9 62.7 28.2 39.9 39.9 1.0 2.1 1.2 72.0 88.6 0.00 0.0000000 60.7
2021-04-18 04:00:00 39.8 63.6 28.5 39.8 39.8 1.5 2.4 1.7 84.2 80.2 0.00 0.0000000 60.6
2021-04-18 04:05:00 39.7 63.3 28.2 35.0 39.7 6.5 7.2 1.8 78.3 67.5 0.00 0.0000000 60.5
2021-04-18 04:10:00 40.0 65.4 29.4 37.1 40.0 4.2 5.6 4.2 48.4 61.5 0.00 0.0000000 60.4
2021-04-18 04:15:00 39.1 67.7 29.3 34.9 39.1 5.6 6.5 5.1 48.3 48.9 0.00 0.0000000 60.4
2021-04-18 04:20:00 38.8 66.6 28.7 35.8 38.8 4.2 5.6 4.4 35.9 37.0 0.00 0.0000000 60.3
2021-04-18 04:25:00 39.0 66.4 28.8 36.1 39.0 4.0 4.4 3.3 19.6 30.2 0.00 0.0000000 60.2
2021-04-18 04:30:00 39.1 66.3 28.8 37.2 39.1 3.1 4.2 3.0 9.1 17.3 0.00 0.0000000 60.2
2021-04-18 04:35:00 38.6 67.6 28.8 38.6 38.6 1.2 4.0 2.6 41.3 11.7 0.00 0.0000000 60.1
2021-04-18 04:40:00 38.6 68.0 28.9 38.6 38.6 2.8 3.7 2.5 5.9 10.4 0.00 0.0000000 60.0
2021-04-18 04:45:00 38.7 66.7 28.6 38.7 38.7 2.2 4.2 2.7 3.0 9.0 0.00 0.0000000 60.0
2021-04-18 04:50:00 39.0 66.5 28.8 39.0 39.0 2.2 3.3 2.0 44.6 21.3 0.00 0.0000000 59.9
2021-04-18 04:55:00 39.3 65.5 28.7 39.3 39.3 3.0 3.8 2.6 22.7 26.6 0.00 0.0000000 59.8
2021-04-18 05:00:00 39.5 65.7 29.0 39.5 39.5 2.1 3.3 2.3 30.0 30.9 0.00 0.0000000 59.8
2021-04-18 05:05:00 39.3 66.5 29.1 39.3 39.3 2.1 3.7 2.4 9.0 25.0 0.00 0.0000000 59.7
2021-04-18 05:10:00 39.3 66.3 29.0 39.3 39.3 1.7 3.1 1.7 17.0 11.9 0.00 0.0000000 59.6
2021-04-18 05:15:00 39.4 65.5 28.8 39.4 39.4 2.4 4.0 2.5 2.5 3.9 0.00 0.0000000 59.5
2021-04-18 05:20:00 39.5 66.0 29.1 39.5 39.5 1.9 3.3 2.3 2.5 24.2 0.00 0.0000000 59.5
2021-04-18 05:25:00 39.3 65.1 28.6 39.3 39.3 0.0 2.1 0.6 273.2 22.0 0.00 0.0000000 59.4
2021-04-18 05:30:00 39.4 65.8 28.9 39.4 39.4 0.0 1.5 0.4 244.1 231.1 0.00 0.0000000 59.4
2021-04-18 05:35:00 39.6 65.8 29.1 39.6 39.6 1.2 1.2 0.2 25.0 23.5 0.00 0.0000000 59.3
2021-04-18 05:40:00 39.8 66.7 29.6 39.8 39.8 1.7 2.4 1.6 40.9 31.7 0.00 0.0000000 59.3
2021-04-18 05:45:00 39.4 67.0 29.4 37.0 39.4 3.7 5.5 2.9 40.4 33.9 0.00 0.0000000 59.2
2021-04-18 05:50:00 39.3 66.2 29.0 39.3 39.3 1.7 4.2 1.7 328.6 338.5 0.00 0.0000000 59.1
2021-04-18 05:55:00 39.5 68.4 30.0 39.5 39.5 2.1 3.8 2.5 48.7 37.5 0.00 0.0000000 59.1
2021-04-18 06:00:00 39.2 67.6 29.4 39.2 39.2 2.1 3.1 2.6 8.7 27.8 0.00 0.0000000 59.1
2021-04-18 06:05:00 39.0 68.0 29.3 36.8 39.0 3.3 4.7 3.1 33.8 27.5 0.00 0.0000000 59.0
2021-04-18 06:10:00 39.1 68.0 29.5 37.0 39.1 3.3 3.8 3.4 30.8 35.0 0.00 0.0000000 59.0
2021-04-18 06:15:00 39.0 67.6 29.2 39.0 39.0 2.1 4.2 2.9 34.0 34.3 0.00 0.0000000 58.9
2021-04-18 06:20:00 39.1 67.4 29.2 39.1 39.1 1.9 3.5 2.3 43.6 32.3 0.00 0.0010000 58.9
2021-04-18 06:25:00 39.3 68.1 29.6 39.3 39.3 1.5 2.6 1.9 46.2 27.5 0.00 0.0010000 58.8
2021-04-18 06:30:00 39.3 68.0 29.6 39.3 39.3 0.0 2.1 1.2 10.8 2.4 0.00 0.0010000 58.8
2021-04-18 06:35:00 39.3 68.9 30.0 39.3 39.3 0.0 1.2 0.2 0.5 28.9 0.00 0.0020000 58.7
2021-04-18 06:40:00 39.5 67.9 29.8 39.5 39.5 0.0 0.8 0.0 304.4 252.3 0.00 0.0030000 58.7
2021-04-18 06:45:00 39.4 67.5 29.6 39.4 39.4 0.0 0.0 0.0 218.5 0.0 0.00 0.0050000 58.7
2021-04-18 06:50:00 39.4 67.8 29.6 39.4 39.4 0.0 0.0 0.0 218.8 0.0 0.00 0.0070000 58.7
2021-04-18 06:55:00 39.6 68.5 30.1 39.6 39.6 1.9 2.1 1.2 231.6 224.9 0.00 0.0090000 58.6
2021-04-18 07:00:00 39.6 67.1 29.6 39.6 39.6 0.0 1.9 0.5 245.9 247.5 0.00 0.0110000 58.6
2021-04-18 07:05:00 39.8 70.4 30.9 39.8 39.8 1.0 2.6 1.3 305.1 293.4 0.00 0.0120000 58.5
2021-04-18 07:10:00 39.4 74.7 32.0 37.5 39.4 3.1 4.9 2.1 261.6 276.5 0.00 0.0130000 58.5
2021-04-18 07:15:00 38.8 79.3 32.9 35.7 38.8 4.2 5.1 3.4 21.2 335.9 0.00 0.0140000 58.5
2021-04-18 07:20:00 38.3 79.4 32.5 38.3 38.3 1.7 4.9 2.6 332.1 348.7 0.01 0.0180000 58.4
2021-04-18 07:25:00 38.3 81.5 33.1 38.3 38.3 3.0 4.2 2.5 319.7 338.7 0.00 0.0220000 58.4
2021-04-18 07:30:00 38.2 82.4 33.3 38.2 38.2 2.6 3.1 1.7 275.9 324.5 0.00 0.0240000 58.4
2021-04-18 07:35:00 38.2 83.2 33.5 38.2 38.2 0.8 4.2 2.3 6.9 315.5 0.00 0.0200000 58.3
2021-04-18 07:40:00 38.0 82.8 33.2 35.5 38.0 3.5 3.7 2.5 311.9 350.7 0.00 0.0170000 58.3
2021-04-18 07:45:00 38.0 81.7 32.9 38.0 38.0 2.2 6.7 3.9 13.8 350.4 0.00 0.0170000 58.3
2021-04-18 07:50:00 37.9 83.8 33.5 37.9 37.9 2.4 5.6 3.9 40.1 355.0 0.00 0.0170000 58.2
2021-04-18 07:55:00 37.7 82.0 32.7 34.4 37.7 4.2 5.5 3.5 9.5 353.5 0.01 0.0200000 58.2
2021-04-18 08:00:00 37.2 85.1 33.2 37.2 37.2 2.8 4.6 3.3 12.3 335.6 0.01 0.0240000 58.2
2021-04-18 08:05:00 37.2 87.6 33.8 37.2 37.2 2.4 4.0 2.7 340.6 343.9 0.01 0.0260000 58.1
2021-04-18 08:10:00 36.9 86.5 33.3 36.9 36.9 2.4 4.9 3.2 346.3 8.0 0.01 0.0260000 58.1
2021-04-18 08:15:00 36.8 88.8 33.8 36.8 36.8 1.9 2.8 1.8 329.6 341.0 0.01 0.0270000 58.0
2021-04-18 08:20:00 36.9 89.9 34.2 36.9 36.9 1.0 2.6 1.6 330.0 321.9 0.01 0.0270000 58.0
2021-04-18 08:25:00 36.8 90.5 34.2 34.5 36.8 3.1 3.8 1.6 321.2 311.8 0.00 0.0270000 58.0
2021-04-18 08:30:00 36.4 91.1 34.1 34.2 36.4 3.1 4.6 1.8 283.9 266.7 0.01 0.0350000 57.9
2021-04-18 08:35:00 36.3 92.0 34.2 36.3 36.3 2.4 4.2 2.3 244.6 273.6 0.01 0.0430000 57.9
2021-04-18 08:40:00 36.5 93.1 34.7 36.5 36.5 0.0 2.8 1.4 217.0 256.9 0.00 0.0570000 57.8
2021-04-18 08:45:00 36.7 93.1 34.9 36.7 36.7 2.2 3.3 1.2 272.1 277.9 0.00 0.0710000 57.8
2021-04-18 08:50:00 36.9 93.6 35.2 36.9 36.9 1.2 2.6 1.6 240.6 261.7 0.01 0.0910000 57.7
2021-04-18 08:55:00 37.2 92.9 35.3 37.2 37.2 0.0 2.2 1.2 261.2 239.3 0.00 0.1120000 57.7
2021-04-18 09:00:00 37.4 91.5 35.2 37.4 37.4 1.3 1.9 0.7 242.6 221.9 0.00 0.1240000 57.6
2021-04-18 09:05:00 37.8 90.9 35.4 37.8 37.8 1.9 2.4 0.7 201.4 214.7 0.00 0.1260000 57.6
2021-04-18 09:10:00 37.9 90.5 35.3 37.9 37.9 2.6 3.3 2.4 240.4 234.0 0.00 0.1100000 57.5
2021-04-18 09:15:00 37.9 90.5 35.3 37.9 37.9 2.1 2.8 1.6 201.4 241.1 0.00 0.1010000 57.5
2021-04-18 09:20:00 37.8 88.9 34.8 37.8 37.8 2.1 2.2 1.2 181.4 213.5 0.01 0.1060000 57.4
2021-04-18 09:25:00 37.9 89.7 35.1 37.9 37.9 1.7 3.0 2.1 225.0 199.5 0.00 0.1170000 57.4
2021-04-18 09:30:00 38.2 90.1 35.5 38.2 38.2 2.8 2.8 2.0 236.3 211.6 0.00 0.1290000 57.3
2021-04-18 09:35:00 38.3 90.1 35.7 38.3 38.3 3.0 3.8 2.6 232.2 217.7 0.00 0.1410000 57.3
2021-04-18 09:40:00 38.2 90.7 35.7 36.0 38.2 3.3 3.3 2.6 195.5 213.9 0.00 0.1590000 57.3
2021-04-18 09:45:00 38.5 90.8 36.1 36.1 38.5 3.5 5.1 3.6 226.9 221.1 0.00 0.1840000 57.3
2021-04-18 09:50:00 38.7 92.0 36.5 38.7 38.7 2.8 4.9 2.8 209.2 217.6 0.00 0.1900000 57.3
2021-04-18 09:55:00 38.9 89.7 36.1 35.7 38.9 4.4 4.4 3.3 193.4 201.6 0.00 0.2010000 57.3
2021-04-18 10:00:00 38.8 90.2 36.2 38.8 38.8 2.6 4.9 3.3 259.2 210.1 0.00 0.2220000 57.3
2021-04-18 10:05:00 39.1 90.5 36.6 39.1 39.1 1.5 4.7 3.2 183.3 223.7 0.00 0.2770000 57.3
2021-04-18 10:10:00 39.8 85.8 35.9 39.8 39.8 3.0 4.2 3.0 184.3 195.9 0.00 0.3430000 57.3
2021-04-18 10:15:00 40.4 87.2 36.9 40.4 40.4 2.2 3.3 2.5 209.1 212.9 0.00 0.4840000 57.3
2021-04-18 10:20:00 41.4 82.1 36.4 41.4 41.4 0.0 3.8 1.7 84.9 190.7 0.00 0.5680000 57.3
2021-04-18 10:25:00 42.2 82.6 37.3 42.2 42.2 1.9 4.0 2.4 182.5 198.9 0.00 0.6580000 57.3
2021-04-18 10:30:00 42.0 78.2 35.7 40.5 42.0 3.1 3.8 2.9 225.5 207.8 0.00 0.5230000 57.4
2021-04-18 10:35:00 42.1 80.7 36.6 42.1 42.1 2.4 4.4 2.8 227.7 214.4 0.00 0.6020000 57.4
2021-04-18 10:40:00 43.2 77.5 36.6 43.2 43.2 0.0 3.5 1.4 16.6 193.1 0.00 0.3950000 57.5
2021-04-18 10:45:00 43.2 76.7 36.4 43.2 43.2 0.0 3.5 1.7 80.6 69.5 0.00 0.3120000 57.6
2021-04-18 10:50:00 42.6 71.1 33.9 42.6 42.6 0.0 2.4 0.8 0.0 225.2 0.00 0.3830000 57.7
2021-04-18 10:55:00 44.2 76.0 37.1 42.7 44.2 3.3 3.3 0.7 183.6 2.1 0.00 0.6070000 57.8
2021-04-18 11:00:00 43.3 74.9 35.9 41.3 43.3 3.8 4.7 3.1 197.5 191.9 0.00 0.5300000 57.9
2021-04-18 11:05:00 43.1 76.2 36.1 43.1 43.1 2.1 4.0 3.2 183.1 199.2 0.00 0.4530000 58.0
2021-04-18 11:10:00 44.0 74.7 36.5 44.0 44.0 2.6 3.5 1.5 138.7 130.9 0.00 0.5320000 58.2
2021-04-18 11:15:00 44.3 68.1 34.5 44.3 44.3 1.7 2.8 1.7 216.0 137.5 0.00 0.4660000 58.3
2021-04-18 11:20:00 45.1 70.2 35.9 45.1 45.1 2.2 4.4 1.3 189.4 161.0 0.00 0.5260000 58.5
2021-04-18 11:25:00 44.8 68.6 35.0 44.8 44.8 2.8 4.0 2.4 125.1 191.0 0.00 0.5960000 58.6
2021-04-18 11:30:00 45.1 66.8 34.7 45.1 45.1 2.6 5.5 2.5 173.2 192.4 0.00 0.6320000 58.8
2021-04-18 11:35:00 44.8 66.8 34.4 44.8 44.8 2.4 4.7 2.7 313.9 127.2 0.00 0.6270000 58.9
2021-04-18 11:40:00 45.3 68.8 35.7 45.3 45.3 2.2 6.7 3.1 119.1 146.7 0.00 0.5680000 59.1
2021-04-18 11:45:00 47.2 65.2 36.1 47.2 47.2 2.6 2.6 1.9 115.4 145.8 0.00 0.6460000 59.2
2021-04-18 11:50:00 47.0 65.1 35.9 47.0 47.0 2.1 4.0 2.8 86.6 153.4 0.00 0.6500000 59.4
2021-04-18 11:55:00 47.5 57.2 33.1 47.5 47.5 2.8 2.8 1.7 34.8 107.8 0.00 1.0150000 59.6
2021-04-18 12:00:00 48.2 59.3 34.7 48.2 48.2 1.9 3.3 2.2 62.7 53.9 0.00 0.8670000 59.7
2021-04-18 12:05:00 47.8 62.1 35.4 47.8 47.8 2.6 5.3 2.5 221.4 196.4 0.00 0.7050000 59.9
2021-04-18 12:10:00 48.7 56.8 34.1 48.7 48.7 2.1 3.3 1.7 340.2 220.8 0.00 1.1290000 60.1
2021-04-18 12:15:00 48.5 53.2 32.2 48.5 48.5 3.0 5.6 2.8 263.2 305.8 0.00 0.6170000 60.3
2021-04-18 12:20:00 47.9 54.8 32.5 47.0 47.9 3.3 4.6 3.0 36.5 33.0 0.00 0.4950000 60.4
2021-04-18 12:25:00 48.6 56.3 33.7 48.6 48.6 1.5 6.5 3.5 113.8 5.9 0.00 1.1280000 60.6
2021-04-18 12:30:00 48.7 57.5 34.3 48.7 48.7 3.0 5.1 3.5 15.1 245.3 0.00 0.5550000 60.8
2021-04-18 12:35:00 48.3 60.0 35.0 48.3 48.3 1.3 6.5 3.3 53.3 55.1 0.00 0.5830000 61.0
2021-04-18 12:40:00 48.1 56.1 33.2 46.8 48.1 3.8 6.7 3.4 228.7 212.5 0.00 0.4670000 61.2
2021-04-18 12:45:00 47.9 53.6 31.9 47.2 47.9 3.1 4.6 3.4 164.7 180.1 0.00 0.4680000 61.4
2021-04-18 12:50:00 48.0 55.7 32.9 47.3 48.0 3.1 6.0 2.9 115.9 189.6 0.00 0.5980000 61.6
2021-04-18 12:55:00 49.0 51.8 32.0 49.0 49.0 2.1 3.8 2.7 207.3 174.2 0.00 0.4940000 61.8
2021-04-18 13:00:00 48.8 52.7 32.3 48.8 48.8 1.5 4.4 2.6 316.9 217.9 0.00 0.4910000 62.0
2021-04-18 13:05:00 50.1 52.4 33.4 50.1 50.1 2.2 2.2 1.5 0.0 27.8 0.00 0.4580000 62.2
2021-04-18 13:10:00 51.1 51.8 33.9 51.1 51.1 5.1 5.1 2.1 58.5 129.0 0.00 0.5390000 62.4
2021-04-18 13:15:00 50.6 54.9 35.0 50.6 50.6 6.3 7.6 3.1 48.7 41.5 0.00 0.3740000 62.5
2021-04-18 13:20:00 49.2 54.4 33.4 49.2 49.2 2.2 6.2 3.4 169.0 123.7 0.00 0.3540000 62.7
2021-04-18 13:25:00 50.3 54.6 34.5 50.3 50.3 4.0 4.2 1.6 43.2 133.1 0.00 0.3570000 62.9
2021-04-18 13:30:00 49.9 56.8 35.2 49.9 49.9 3.0 4.6 3.0 41.3 59.2 0.00 0.3710000 63.0
2021-04-18 13:35:00 49.1 52.5 32.5 49.1 49.1 1.9 3.5 2.5 334.5 40.9 0.00 0.3920000 63.1
2021-04-18 13:40:00 49.8 49.8 31.8 48.9 49.8 3.7 4.0 2.9 48.5 338.7 0.00 0.5280000 63.2
2021-04-18 13:45:00 50.2 50.7 32.6 50.2 50.2 1.9 3.7 2.0 212.6 228.0 0.00 0.4920000 63.3
2021-04-18 13:50:00 50.9 51.9 33.8 50.9 50.9 1.2 5.5 3.2 58.0 42.0 0.00 0.5520000 63.4
2021-04-18 13:55:00 50.8 49.6 32.6 50.8 50.8 3.1 4.2 2.8 298.3 266.2 0.00 0.4380000 63.5
2021-04-18 14:00:00 50.6 49.2 32.3 50.6 50.6 4.4 5.8 3.4 24.8 355.8 0.00 0.4020000 63.6
2021-04-18 14:05:00 50.8 48.8 32.2 50.8 50.8 0.0 4.7 1.9 6.0 10.9 0.00 0.3610000 63.7
2021-04-18 14:10:00 51.5 48.6 32.8 51.5 51.5 2.8 2.8 1.0 143.1 39.9 0.00 0.3500000 63.8
2021-04-18 14:15:00 50.7 48.0 31.7 50.7 50.7 1.9 4.7 2.6 137.1 182.2 0.00 0.3200000 63.8
2021-04-18 14:20:00 50.1 47.8 31.0 50.1 50.1 0.0 3.3 2.0 50.4 183.9 0.00 0.2710000 63.9
2021-04-18 14:25:00 50.9 50.8 33.3 50.9 50.9 1.0 2.8 1.2 48.0 83.7 0.00 0.2710000 64.0
2021-04-18 14:30:00 51.6 45.6 31.2 51.6 51.6 1.2 3.7 1.6 343.4 56.5 0.00 0.2930000 64.1
2021-04-18 14:35:00 50.7 47.9 31.6 50.7 50.7 1.3 3.5 2.0 14.2 342.8 0.00 0.3100000 64.1
2021-04-18 14:40:00 51.5 45.8 31.3 51.5 51.5 3.3 3.3 1.5 21.6 32.7 0.00 0.3250000 64.2
2021-04-18 14:45:00 51.4 47.3 31.9 51.4 51.4 5.3 6.0 3.3 35.1 57.3 0.00 0.3530000 64.2
2021-04-18 14:50:00 50.6 51.2 33.2 50.6 50.6 3.5 5.6 3.6 49.2 37.1 0.00 0.3870000 64.3
2021-04-18 14:55:00 51.1 48.8 32.5 51.1 51.1 2.8 4.6 3.0 15.6 48.7 0.00 0.3790000 64.3
2021-04-18 15:00:00 51.2 45.9 31.0 51.2 51.2 3.5 4.2 2.7 6.9 27.9 0.00 0.3670000 64.4
2021-04-18 15:05:00 51.9 47.2 32.4 51.9 51.9 1.9 3.3 1.5 251.7 273.9 0.00 0.3690000 64.4
2021-04-18 15:10:00 52.6 43.4 31.0 52.6 52.6 3.3 4.6 1.6 184.3 193.7 0.00 0.3990000 64.4
2021-04-18 15:15:00 51.5 46.0 31.4 51.5 51.5 1.5 4.9 3.5 150.6 186.4 0.00 0.3640000 64.5
2021-04-18 15:20:00 52.5 43.5 30.9 52.5 52.5 2.8 5.3 2.1 214.1 168.4 0.00 0.3370000 64.5
2021-04-18 15:25:00 52.2 47.1 32.6 52.2 52.2 3.5 3.5 2.3 171.7 176.0 0.00 0.3350000 64.5
2021-04-18 15:30:00 51.9 46.3 31.9 51.9 51.9 2.8 4.2 2.7 24.0 99.9 0.00 0.3060000 64.6
2021-04-18 15:35:00 51.7 45.3 31.2 51.7 51.7 1.7 4.2 1.5 273.3 262.8 0.00 0.6180000 64.6
2021-04-18 15:40:00 53.7 43.9 32.3 53.7 53.7 3.8 4.0 1.7 210.9 147.9 0.00 0.5260000 64.7
2021-04-18 15:45:00 54.7 42.6 32.4 54.7 54.7 2.8 4.2 2.3 49.5 175.0 0.00 0.7640000 64.7
2021-04-18 15:50:00 54.2 43.1 32.3 54.2 54.2 2.2 4.6 2.8 258.6 14.3 0.00 0.7580000 64.7
2021-04-18 15:55:00 54.0 43.9 32.5 54.0 54.0 3.0 3.3 1.9 49.6 249.9 0.00 0.7360000 64.8
2021-04-18 16:00:00 54.1 40.8 30.8 54.1 54.1 4.4 5.6 3.2 245.1 234.7 0.00 0.7280000 64.8
2021-04-18 16:05:00 52.1 43.8 30.7 52.1 52.1 4.2 7.4 5.3 236.3 205.1 0.00 0.1650000 64.9
2021-04-18 16:10:00 51.5 44.9 30.8 51.5 51.5 1.9 4.9 2.4 257.8 241.5 0.00 0.2270000 65.0
2021-04-18 16:15:00 53.0 43.1 31.2 53.0 53.0 3.3 4.4 2.7 223.3 227.6 0.00 0.7440000 65.0
2021-04-18 16:20:00 55.1 39.8 31.1 55.1 55.1 1.3 3.5 1.7 180.6 306.6 0.00 0.7300000 65.1
2021-04-18 16:25:00 55.9 41.5 32.8 55.9 55.9 2.8 3.1 1.4 130.3 166.9 0.00 0.6560000 65.2
2021-04-18 16:30:00 57.3 46.0 36.7 57.3 57.3 1.5 3.8 1.4 136.5 132.1 0.00 0.6900000 65.3
2021-04-18 16:35:00 57.0 40.0 32.9 57.0 57.0 2.2 3.8 2.0 58.1 63.8 0.00 0.6620000 65.3
2021-04-18 16:40:00 55.6 38.9 31.0 55.6 55.6 3.0 3.0 1.8 178.6 107.9 0.00 0.1280000 65.4
2021-04-18 16:45:00 54.7 38.8 30.1 54.7 54.7 3.7 3.7 1.8 154.3 161.5 0.00 0.6260000 65.5
2021-04-18 16:50:00 53.5 41.5 30.7 53.5 53.5 3.3 6.2 3.2 173.0 181.5 0.00 0.1860000 65.6
2021-04-18 16:55:00 53.3 40.7 29.9 53.3 53.3 2.1 4.2 1.8 59.8 99.0 0.00 0.1200000 65.7
2021-04-18 17:00:00 53.3 42.6 31.2 53.3 53.3 1.3 2.1 0.9 197.9 104.3 0.00 0.1210000 65.8
2021-04-18 17:05:00 53.7 44.2 32.3 53.7 53.7 1.9 2.6 0.9 90.7 67.2 0.00 0.1990000 65.8
2021-04-18 17:10:00 53.5 40.8 30.2 53.5 53.5 3.1 3.5 2.9 24.1 37.7 0.00 0.1180000 65.9
2021-04-18 17:15:00 53.4 40.7 30.1 53.4 53.4 3.1 3.5 2.8 174.8 39.0 0.00 0.4880000 65.9
2021-04-18 17:20:00 53.5 40.6 30.1 53.5 53.5 0.0 3.3 1.7 141.0 168.0 0.00 0.1360000 66.0
2021-04-18 17:25:00 53.7 41.4 30.7 53.7 53.7 0.0 2.2 0.4 35.0 95.3 0.00 0.3510000 66.0
2021-04-18 17:30:00 54.0 41.5 31.1 54.0 54.0 1.2 1.9 0.7 64.2 41.2 0.00 0.4120000 66.0
2021-04-18 17:35:00 54.6 41.7 31.7 54.6 54.6 1.9 3.8 1.0 107.7 166.5 0.00 0.3880000 66.0
2021-04-18 17:40:00 54.1 40.1 30.4 54.1 54.1 4.0 5.1 2.1 197.3 235.2 0.00 0.3610000 66.0
2021-04-18 17:45:00 53.6 41.7 30.9 53.6 53.6 3.1 4.9 3.2 205.1 214.2 0.00 0.3390000 65.9
2021-04-18 17:50:00 53.9 40.2 30.3 53.9 53.9 3.0 4.2 3.1 161.9 191.3 0.00 0.3210000 65.9
2021-04-18 17:55:00 53.8 40.6 30.4 53.8 53.8 4.0 4.2 2.8 218.1 174.2 0.00 0.3060000 65.9
2021-04-18 18:00:00 53.8 39.1 29.5 53.8 53.8 4.6 5.1 3.5 210.7 205.5 0.00 0.2850000 65.8
2021-04-18 18:05:00 53.9 39.4 29.8 53.9 53.9 3.0 4.4 2.5 206.5 196.1 0.00 0.2710000 65.8
2021-04-18 18:10:00 53.6 40.6 30.2 53.6 53.6 2.8 4.0 3.3 220.2 199.5 0.00 0.2540000 65.7
2021-04-18 18:15:00 53.4 43.3 31.6 53.4 53.4 3.0 3.8 2.8 188.4 222.7 0.00 0.2380000 65.6
2021-04-18 18:20:00 54.3 42.1 31.8 54.3 54.3 2.4 4.9 2.1 169.7 156.4 0.00 0.2230000 65.5
2021-04-18 18:25:00 54.3 40.3 30.7 54.3 54.3 1.9 3.7 1.9 162.5 182.5 0.00 0.2070000 65.4
2021-04-18 18:30:00 54.4 40.1 30.6 54.4 54.4 2.1 4.2 1.9 170.8 140.5 0.00 0.1900000 65.4
2021-04-18 18:35:00 54.4 39.8 30.4 54.4 54.4 3.3 4.0 2.7 204.4 185.7 0.00 0.1730000 65.3
2021-04-18 18:40:00 54.5 39.6 30.4 54.5 54.5 1.2 5.5 3.0 226.3 234.1 0.00 0.1580000 65.2
2021-04-18 18:45:00 54.2 41.1 31.0 54.2 54.2 1.0 4.4 2.6 142.2 200.9 0.00 0.1430000 65.1
2021-04-18 18:50:00 54.2 40.2 30.5 54.2 54.2 4.7 5.1 3.4 227.4 239.3 0.00 0.1290000 65.1
2021-04-18 18:55:00 53.8 40.2 30.2 53.8 53.8 2.8 5.6 3.7 222.2 236.8 0.00 0.1140000 65.0
2021-04-18 19:00:00 53.3 40.7 30.0 53.3 53.3 2.6 3.8 2.7 296.0 217.1 0.00 0.0970000 64.9
2021-04-18 19:05:00 53.3 40.4 29.8 53.3 53.3 2.8 4.2 2.6 216.3 238.0 0.00 0.0690000 64.8
2021-04-18 19:10:00 52.9 41.3 30.0 52.9 52.9 2.8 4.2 2.8 231.3 241.6 0.00 0.0380000 64.7
2021-04-18 19:15:00 52.6 42.2 30.3 52.6 52.6 3.0 4.2 2.0 231.0 226.2 0.00 0.0210000 64.7
2021-04-18 19:20:00 52.2 43.2 30.4 52.2 52.2 1.9 3.1 2.5 195.8 210.6 0.00 0.0180000 64.6
2021-04-18 19:25:00 51.7 42.9 29.9 51.7 51.7 1.2 2.6 1.7 211.5 214.9 0.00 0.0140000 64.5
2021-04-18 19:30:00 51.6 44.0 30.5 51.6 51.6 2.8 2.8 1.8 197.8 213.7 0.00 0.0110000 64.4
2021-04-18 19:35:00 51.2 44.9 30.5 51.2 51.2 0.0 3.3 1.8 210.3 222.5 0.00 0.0080000 64.3
2021-04-18 19:40:00 50.9 45.9 30.8 50.9 50.9 1.5 2.1 0.4 207.4 215.6 0.00 0.0050000 64.1
2021-04-18 19:45:00 50.6 47.4 31.3 50.6 50.6 2.6 3.3 2.3 244.6 233.8 0.00 0.0030000 64.1
2021-04-18 19:50:00 50.4 48.4 31.6 50.4 50.4 1.5 2.8 1.5 203.7 235.4 0.00 0.0010000 64.0
2021-04-18 19:55:00 50.2 49.1 31.8 50.2 50.2 2.1 3.0 1.7 220.1 231.6 0.00 0.0010000 63.8
2021-04-18 20:00:00 49.5 49.7 31.5 49.5 49.5 1.3 2.4 1.1 227.2 214.8 0.00 0.0000000 63.7
2021-04-18 20:05:00 49.7 50.2 31.9 49.7 49.7 0.0 2.8 1.6 250.7 233.9 0.00 0.0000000 63.6
2021-04-18 20:10:00 49.0 51.9 32.1 49.0 49.0 0.0 1.3 0.1 223.9 226.4 0.00 0.0000000 63.5
2021-04-18 20:15:00 48.7 52.4 32.1 48.7 48.7 0.0 2.8 1.2 212.8 231.5 0.00 0.0000000 63.4
2021-04-18 20:20:00 48.5 54.1 32.6 48.5 48.5 0.0 1.2 0.1 215.9 199.5 0.00 0.0000000 63.2
2021-04-18 20:25:00 48.0 55.9 33.0 48.0 48.0 0.0 1.0 0.0 263.6 236.1 0.00 0.0000000 63.1
2021-04-18 20:30:00 47.4 57.9 33.3 47.4 47.4 0.0 0.0 0.0 242.6 0.0 0.00 0.0000000 63.0
2021-04-18 20:35:00 47.0 59.0 33.4 47.0 47.0 0.0 0.0 0.0 196.6 0.0 0.00 0.0000000 62.9
2021-04-18 20:40:00 46.6 61.0 33.8 46.6 46.6 0.0 0.0 0.0 213.5 0.0 0.00 0.0000000 62.7
2021-04-18 20:45:00 46.3 63.7 34.6 46.3 46.3 0.0 0.0 0.0 325.1 0.0 0.00 0.0000000 62.6
2021-04-18 20:50:00 45.6 65.4 34.7 45.6 45.6 0.0 1.3 0.1 306.1 271.4 0.00 0.0000000 62.5
2021-04-18 20:55:00 45.1 67.9 35.1 45.1 45.1 0.0 0.0 0.0 230.7 0.0 0.00 0.0000000 62.4
2021-04-18 21:00:00 44.8 67.6 34.7 44.8 44.8 0.0 0.0 0.0 242.8 0.0 0.00 0.0000000 62.2
2021-04-18 21:05:00 44.7 67.4 34.6 44.7 44.7 0.0 0.0 0.0 208.4 0.0 0.00 0.0000000 62.1
2021-04-18 21:10:00 44.6 66.8 34.2 44.6 44.6 0.0 0.0 0.0 254.1 0.0 0.00 0.0000000 62.0
2021-04-18 21:15:00 44.1 68.7 34.5 44.1 44.1 0.0 0.0 0.0 212.9 0.0 0.00 0.0000000 61.9
2021-04-18 21:20:00 44.1 69.8 34.9 44.1 44.1 0.0 0.0 0.0 231.1 0.0 0.00 0.0000000 61.8
2021-04-18 21:25:00 44.0 68.2 34.1 44.0 44.0 0.0 1.9 0.5 259.5 251.9 0.00 0.0000000 61.6
2021-04-18 21:30:00 44.1 67.2 33.9 44.1 44.1 0.8 2.8 1.1 236.4 251.1 0.00 0.0000000 61.5
2021-04-18 21:35:00 44.1 67.0 33.9 42.2 44.1 3.8 4.0 2.1 229.0 234.8 0.00 0.0000000 61.4
2021-04-18 21:40:00 43.5 69.3 34.1 42.0 43.5 3.3 3.8 2.6 245.8 224.2 0.00 0.0000000 61.3
2021-04-18 21:45:00 44.0 68.8 34.4 44.0 44.0 0.0 3.5 2.3 244.7 240.2 0.00 0.0000000 61.2
2021-04-18 21:50:00 43.6 70.1 34.5 43.6 43.6 0.0 0.0 0.0 230.8 0.0 0.00 0.0000000 61.1
2021-04-18 21:55:00 43.3 72.0 34.9 43.3 43.3 0.0 0.0 0.0 249.2 0.0 0.00 0.0000000 61.0
2021-04-18 22:00:00 42.7 71.7 34.3 42.7 42.7 1.5 1.7 0.4 286.7 295.6 0.00 0.0000000 60.8
2021-04-18 22:05:00 42.9 71.8 34.5 42.9 42.9 1.7 3.0 1.5 172.6 191.5 0.00 0.0000000 60.7
2021-04-18 22:10:00 42.2 71.3 33.6 42.2 42.2 1.7 3.0 1.9 228.4 203.5 0.00 0.0000000 60.6

Data is courtesy of the NM Climate Center. DO NOT USE IN LEGAL PROCEEDINGS.